Wetterstation Vordersexau
Wetterdaten: Woche 08.06.15 - 14.06.15 (KW24)
Datum Zeit Temp. A. Feuchte A. Luftdruck Regen Wind Richtung Taupunkt Windchill Windben
08.06.2015 00:00 16,9 C 77 % 1021,2 hPa 0,0 l/m 0,0 km/h O-SO 12,8 C 16,9 C 0,0 km/h
08.06.2015 01:00 16,2 C 83 % 1020,9 hPa 0,4 l/m 0,0 km/h N-NW 13,3 C 16,2 C 0,0 km/h
08.06.2015 02:00 15,6 C 83 % 1020,3 hPa 0,0 l/m 0,0 km/h W-NW 12,7 C 15,6 C 0,0 km/h
08.06.2015 03:00 15,0 C 83 % 1020,2 hPa 0,0 l/m 1,9 km/h W-SW 12,1 C 15,0 C 1,1 km/h
08.06.2015 04:00 14,5 C 82 % 1020,2 hPa 0,0 l/m 0,6 km/h W-NW 11,5 C 14,5 C 0,4 km/h
08.06.2015 05:00 13,6 C 82 % 1020,5 hPa 0,0 l/m 0,0 km/h N-NW 10,6 C 13,6 C 0,0 km/h
08.06.2015 06:00 13,6 C 82 % 1020,3 hPa 0,0 l/m 0,0 km/h W-NW 10,6 C 13,6 C 0,0 km/h
08.06.2015 07:00 14,1 C 83 % 1020,2 hPa 0,0 l/m 0,6 km/h W-NW 11,3 C 14,1 C 0,4 km/h
08.06.2015 08:00 14,4 C 84 % 1020,4 hPa 0,0 l/m 0,0 km/h NW 11,7 C 14,4 C 0,0 km/h
08.06.2015 09:00 14,9 C 83 % 1020,4 hPa 0,0 l/m 0,0 km/h W 12,0 C 14,9 C 0,0 km/h
08.06.2015 10:00 15,3 C 84 % 1020,5 hPa 0,0 l/m 0,0 km/h W-NW 12,6 C 15,3 C 0,0 km/h
08.06.2015 11:00 16,0 C 83 % 1020,5 hPa 0,0 l/m 0,0 km/h N-NO 13,1 C 16,0 C 0,0 km/h
08.06.2015 12:00 17,1 C 82 % 1020,4 hPa 0,0 l/m 0,0 km/h N-NO 14,0 C 17,1 C 0,0 km/h
08.06.2015 13:00 17,9 C 80 % 1019,9 hPa 0,0 l/m 3,2 km/h NW 14,4 C 17,9 C 1,8 km/h
08.06.2015 14:00 19,5 C 76 % 1019,6 hPa 0,0 l/m 1,3 km/h N 15,2 C 19,5 C 0,7 km/h
08.06.2015 15:00 20,1 C 74 % 1019,1 hPa 0,0 l/m 3,9 km/h O-NO 15,3 C 20,1 C 2,2 km/h
08.06.2015 16:00 19,8 C 72 % 1018,8 hPa 0,0 l/m 22,0 km/h N-NO 14,6 C 15,6 C 12,2 km/h
08.06.2015 17:00 20,2 C 73 % 1018,1 hPa 0,0 l/m 9,7 km/h N-NO 15,2 C 19,0 C 5,4 km/h
08.06.2015 18:00 20,4 C 65 % 1018,3 hPa 0,0 l/m 3,2 km/h N-NO 13,6 C 20,4 C 1,8 km/h
08.06.2015 19:00 17,6 C 69 % 1018,7 hPa 0,0 l/m 0,0 km/h O-NO 11,8 C 17,6 C 0,0 km/h
08.06.2015 20:00 16,8 C 71 % 1018,8 hPa 0,0 l/m 0,0 km/h NO 11,5 C 16,8 C 0,0 km/h
08.06.2015 21:00 16,1 C 72 % 1019,3 hPa 0,0 l/m 0,0 km/h NO 11,0 C 16,1 C 0,0 km/h
08.06.2015 22:00 15,3 C 73 % 1019,3 hPa 0,0 l/m 0,0 km/h N-NO 10,5 C 15,3 C 0,0 km/h
08.06.2015 23:00 15,3 C 72 % 1019,5 hPa 0,0 l/m 0,0 km/h SO 10,3 C 15,3 C 0,0 km/h
09.06.2015 00:00 14,2 C 74 % 1019,2 hPa 0,0 l/m 0,0 km/h NO 9,6 C 14,2 C 0,0 km/h
09.06.2015 01:00 13,5 C 78 % 1019,0 hPa 0,0 l/m 0,0 km/h O 9,7 C 13,5 C 0,0 km/h
09.06.2015 02:00 11,7 C 80 % 1018,6 hPa 0,0 l/m 0,0 km/h N-NO 8,4 C 11,7 C 0,0 km/h
09.06.2015 03:00 12,6 C 81 % 1018,5 hPa 0,0 l/m 0,0 km/h N-NO 9,4 C 12,6 C 0,0 km/h
09.06.2015 04:00 12,2 C 81 % 1018,6 hPa 0,0 l/m 0,0 km/h NO 9,0 C 12,2 C 0,0 km/h
09.06.2015 05:00 10,4 C 83 % 1018,8 hPa 0,0 l/m 0,0 km/h NO 7,6 C 10,4 C 0,0 km/h
09.06.2015 06:00 13,1 C 83 % 1018,7 hPa 0,0 l/m 0,0 km/h NO 10,3 C 13,1 C 0,0 km/h
09.06.2015 07:00 15,6 C 77 % 1018,8 hPa 0,0 l/m 0,0 km/h O-SO 11,6 C 15,6 C 0,0 km/h
09.06.2015 08:00 18,9 C 67 % 1018,6 hPa 0,0 l/m 0,0 km/h N-NO 12,6 C 18,9 C 0,0 km/h
09.06.2015 09:00 19,5 C 62 % 1018,7 hPa 0,0 l/m 5,8 km/h N-NO 12,0 C 19,5 C 3,2 km/h
09.06.2015 10:00 18,3 C 64 % 1019,0 hPa 0,0 l/m 0,0 km/h N-NO 11,4 C 18,3 C 0,0 km/h
09.06.2015 11:00 19,5 C 63 % 1019,0 hPa 0,0 l/m 11,7 km/h O-SO 12,3 C 17,5 C 6,5 km/h
09.06.2015 12:00 18,8 C 63 % 1019,1 hPa 0,0 l/m 0,0 km/h O-NO 11,6 C 18,8 C 0,0 km/h
09.06.2015 13:00 18,8 C 64 % 1019,2 hPa 0,0 l/m 0,0 km/h N-NO 11,8 C 18,8 C 0,0 km/h
09.06.2015 14:00 19,3 C 62 % 1019,0 hPa 0,0 l/m 11,0 km/h O-SO 11,8 C 17,5 C 6,1 km/h
09.06.2015 15:00 20,9 C 59 % 1018,6 hPa 0,0 l/m 0,0 km/h N 12,6 C 20,9 C 0,0 km/h
09.06.2015 16:00 19,5 C 61 % 1018,8 hPa 0,0 l/m 0,0 km/h O-NO 11,8 C 19,5 C 0,0 km/h
09.06.2015 17:00 17,6 C 65 % 1018,9 hPa 0,0 l/m 0,6 km/h N-NO 10,9 C 17,6 C 0,4 km/h
09.06.2015 18:00 17,9 C 66 % 1018,8 hPa 0,0 l/m 1,3 km/h NO 11,5 C 17,9 C 0,7 km/h
09.06.2015 19:00 16,8 C 68 % 1019,1 hPa 0,0 l/m 0,0 km/h N-NO 10,9 C 16,8 C 0,0 km/h
09.06.2015 20:00 14,6 C 74 % 1019,4 hPa 0,0 l/m 20,1 km/h N-NO 10,0 C 9,2 C 11,2 km/h
09.06.2015 21:00 14,3 C 75 % 1020,0 hPa 0,0 l/m 0,0 km/h N-NO 9,9 C 14,3 C 0,0 km/h
09.06.2015 22:00 14,2 C 75 % 1020,0 hPa 0,0 l/m 0,0 km/h O 9,8 C 14,2 C 0,0 km/h
09.06.2015 23:00 14,2 C 75 % 1019,7 hPa 0,0 l/m 0,0 km/h N-NO 9,8 C 14,2 C 0,0 km/h
10.06.2015 02:00 14,1 C 76 % 1018,9 hPa 0,0 l/m 0,0 km/h O-SO 9,9 C 14,1 C 0,0 km/h
10.06.2015 03:00 13,6 C 76 % 1018,6 hPa 0,0 l/m 0,0 km/h O 9,4 C 13,6 C 0,0 km/h
10.06.2015 04:00 11,5 C 80 % 1018,1 hPa 0,0 l/m 0,0 km/h O 8,2 C 11,5 C 0,0 km/h
10.06.2015 05:00 11,4 C 83 % 1018,2 hPa 0,0 l/m 0,0 km/h O 8,6 C 11,4 C 0,0 km/h
10.06.2015 06:00 13,1 C 83 % 1018,2 hPa 0,0 l/m 0,0 km/h O 10,3 C 13,1 C 0,0 km/h
10.06.2015 07:00 15,6 C 80 % 1018,2 hPa 0,0 l/m 0,0 km/h W-NW 12,2 C 15,6 C 0,0 km/h
10.06.2015 08:00 17,6 C 73 % 1018,6 hPa 0,0 l/m 0,0 km/h O-SO 12,7 C 17,6 C 0,0 km/h
10.06.2015 09:00 20,6 C 64 % 1018,6 hPa 0,0 l/m 5,2 km/h N-NO 13,5 C 20,6 C 2,9 km/h
10.06.2015 10:00 20,1 C 62 % 1018,4 hPa 0,0 l/m 0,0 km/h N-NO 12,6 C 20,1 C 0,0 km/h
10.06.2015 11:00 20,1 C 64 % 1018,6 hPa 0,0 l/m 2,6 km/h NO 13,1 C 20,1 C 1,4 km/h
10.06.2015 12:00 20,8 C 62 % 1018,7 hPa 0,0 l/m 0,0 km/h S-SO 13,2 C 20,8 C 0,0 km/h
10.06.2015 13:00 21,3 C 61 % 1018,4 hPa 0,0 l/m 0,0 km/h O-NO 13,5 C 21,3 C 0,0 km/h
10.06.2015 14:00 23,6 C 58 % 1018,4 hPa 0,0 l/m 0,0 km/h NO 14,8 C 23,6 C 0,0 km/h
10.06.2015 15:00 23,5 C 57 % 1018,1 hPa 0,0 l/m 0,0 km/h O-NO 14,5 C 23,5 C 0,0 km/h
10.06.2015 16:00 23,7 C 57 % 1017,8 hPa 0,0 l/m 0,0 km/h NO 14,7 C 23,7 C 0,0 km/h
10.06.2015 17:00 25,1 C 55 % 1017,4 hPa 0,0 l/m 13,6 km/h SO 15,4 C 23,6 C 7,6 km/h
10.06.2015 18:00 23,2 C 55 % 1017,5 hPa 0,0 l/m 0,0 km/h N-NO 13,6 C 23,2 C 0,0 km/h
10.06.2015 19:00 19,9 C 65 % 1017,5 hPa 0,0 l/m 0,0 km/h O 13,1 C 19,9 C 0,0 km/h
10.06.2015 20:00 18,3 C 70 % 1017,4 hPa 0,0 l/m 0,0 km/h N-NO 12,7 C 18,3 C 0,0 km/h
10.06.2015 21:00 17,6 C 73 % 1018,1 hPa 0,0 l/m 0,0 km/h NO 12,7 C 17,6 C 0,0 km/h
10.06.2015 22:00 15,3 C 77 % 1018,3 hPa 0,0 l/m 0,0 km/h SO 11,3 C 15,3 C 0,0 km/h
10.06.2015 23:00 14,8 C 81 % 1018,2 hPa 0,0 l/m 0,0 km/h SO 11,6 C 14,8 C 0,0 km/h
11.06.2015 00:00 13,4 C 82 % 1018,2 hPa 0,0 l/m 0,0 km/h O-SO 10,4 C 13,4 C 0,0 km/h
11.06.2015 01:00 12,8 C 84 % 1018,0 hPa 0,0 l/m 0,0 km/h O-NO 10,2 C 12,8 C 0,0 km/h
11.06.2015 02:00 12,8 C 84 % 1017,4 hPa 0,0 l/m 0,0 km/h O-NO 10,2 C 12,8 C 0,0 km/h
11.06.2015 03:00 12,4 C 84 % 1017,2 hPa 0,0 l/m 0,0 km/h O-NO 9,8 C 12,4 C 0,0 km/h
11.06.2015 04:00 12,9 C 84 % 1017,0 hPa 0,0 l/m 0,0 km/h S-SO 10,3 C 12,9 C 0,0 km/h
11.06.2015 05:00 12,8 C 84 % 1016,6 hPa 0,0 l/m 0,0 km/h O-NO 10,2 C 12,8 C 0,0 km/h
11.06.2015 06:00 13,9 C 83 % 1016,6 hPa 0,0 l/m 0,0 km/h N-NW 11,1 C 13,9 C 0,0 km/h
11.06.2015 07:00 18,6 C 80 % 1016,5 hPa 0,0 l/m 0,0 km/h N-NO 15,1 C 18,6 C 0,0 km/h
11.06.2015 08:00 24,3 C 60 % 1016,5 hPa 0,0 l/m 0,6 km/h W-NW 16,0 C 24,3 C 0,4 km/h
11.06.2015 09:00 23,6 C 58 % 1016,1 hPa 0,0 l/m 1,3 km/h W-NW 14,8 C 23,6 C 0,7 km/h
11.06.2015 10:00 23,3 C 64 % 1016,0 hPa 0,0 l/m 0,0 km/h N-NW 16,1 C 23,3 C 0,0 km/h
11.06.2015 11:00 26,4 C 57 % 1015,5 hPa 0,0 l/m 2,6 km/h NO 17,2 C 26,4 C 1,4 km/h
11.06.2015 12:00 27,5 C 56 % 1014,8 hPa 0,0 l/m 3,2 km/h N-NW 17,9 C 27,5 C 1,8 km/h
11.06.2015 13:00 28,5 C 54 % 1013,8 hPa 0,0 l/m 5,2 km/h N-NW 18,3 C 28,5 C 2,9 km/h
11.06.2015 14:00 30,8 C 50 % 1013,2 hPa 0,0 l/m 3,9 km/h W-SW 19,1 C 30,8 C 2,2 km/h
11.06.2015 15:00 31,4 C 47 % 1012,4 hPa 0,0 l/m 3,9 km/h NO 18,7 C 31,4 C 2,2 km/h
11.06.2015 16:00 31,2 C 43 % 1011,9 hPa 0,0 l/m 0,0 km/h W-NW 17,1 C 31,2 C 0,0 km/h
11.06.2015 17:00 33,3 C 42 % 1011,1 hPa 0,0 l/m 13,0 km/h N-NO 18,6 C 33,3 C 7,2 km/h
11.06.2015 18:00 32,3 C 41 % 1010,9 hPa 0,0 l/m 1,9 km/h N-NO 17,3 C 32,3 C 1,1 km/h
11.06.2015 19:00 27,1 C 51 % 1010,5 hPa 0,0 l/m 5,8 km/h N 16,1 C 27,1 C 3,2 km/h
11.06.2015 20:00 24,1 C 62 % 1010,5 hPa 0,0 l/m 0,0 km/h O-NO 16,4 C 24,1 C 0,0 km/h
11.06.2015 21:00 20,4 C 72 % 1010,8 hPa 0,0 l/m 0,0 km/h SO 15,2 C 20,4 C 0,0 km/h
11.06.2015 22:00 18,9 C 77 % 1010,8 hPa 0,0 l/m 0,0 km/h O-NO 14,8 C 18,9 C 0,0 km/h
11.06.2015 23:00 16,9 C 81 % 1010,5 hPa 0,0 l/m 0,0 km/h SO 13,6 C 16,9 C 0,0 km/h
12.06.2015 00:00 16,3 C 82 % 1010,0 hPa 0,0 l/m 0,0 km/h NO 13,2 C 16,3 C 0,0 km/h
12.06.2015 01:00 15,1 C 83 % 1010,1 hPa 0,0 l/m 0,0 km/h NO 12,2 C 15,1 C 0,0 km/h
12.06.2015 02:00 14,5 C 84 % 1009,8 hPa 0,0 l/m 0,0 km/h NO 11,8 C 14,5 C 0,0 km/h
12.06.2015 03:00 13,9 C 84 % 1009,7 hPa 0,0 l/m 0,0 km/h O-NO 11,2 C 13,9 C 0,0 km/h
12.06.2015 04:00 13,5 C 83 % 1009,8 hPa 0,0 l/m 0,0 km/h O-NO 10,7 C 13,5 C 0,0 km/h
12.06.2015 05:00 13,6 C 82 % 1009,7 hPa 0,0 l/m 0,0 km/h O-NO 10,6 C 13,6 C 0,0 km/h
12.06.2015 06:00 14,5 C 80 % 1010,6 hPa 0,0 l/m 0,0 km/h SO 11,1 C 14,5 C 0,0 km/h
12.06.2015 07:00 20,1 C 82 % 1010,4 hPa 0,0 l/m 0,0 km/h N-NO 16,9 C 20,1 C 0,0 km/h
12.06.2015 08:00 26,4 C 63 % 1010,4 hPa 0,0 l/m 0,0 km/h W-NW 18,8 C 26,4 C 0,0 km/h
12.06.2015 09:00 28,9 C 53 % 1010,0 hPa 0,0 l/m 0,0 km/h W 18,3 C 28,9 C 0,0 km/h
12.06.2015 10:00 28,8 C 54 % 1009,8 hPa 0,0 l/m 0,0 km/h W 18,5 C 28,8 C 0,0 km/h
12.06.2015 11:00 29,5 C 52 % 1009,4 hPa 0,0 l/m 1,3 km/h S 18,6 C 29,5 C 0,7 km/h
12.06.2015 12:00 30,6 C 50 % 1009,3 hPa 0,0 l/m 7,8 km/h NW 19,0 C 30,5 C 4,3 km/h
12.06.2015 13:00 32,6 C 45 % 1008,7 hPa 0,0 l/m 15,6 km/h N-NO 19,1 C 32,5 C 8,6 km/h
12.06.2015 14:00 32,3 C 43 % 1008,4 hPa 0,0 l/m 0,0 km/h O-SO 18,1 C 32,3 C 0,0 km/h
12.06.2015 15:00 29,9 C 47 % 1008,0 hPa 0,0 l/m 0,0 km/h O 17,3 C 29,9 C 0,0 km/h
12.06.2015 16:00 25,6 C 56 % 1008,4 hPa 0,0 l/m 0,0 km/h W 16,2 C 25,6 C 0,0 km/h
12.06.2015 17:00 20,6 C 77 % 1009,4 hPa 0,0 l/m 21,4 km/h S-SO 16,4 C 16,7 C 11,9 km/h
12.06.2015 18:00 17,5 C 83 % 1009,2 hPa 7,0 l/m 5,2 km/h S 14,6 C 17,5 C 2,9 km/h
12.06.2015 19:00 18,6 C 83 % 1008,8 hPa 0,0 l/m 21,4 km/h SO 15,7 C 14,1 C 11,9 km/h
12.06.2015 20:00 18,2 C 83 % 1008,9 hPa 0,0 l/m 0,0 km/h SO 15,3 C 18,2 C 0,0 km/h
12.06.2015 21:00 17,0 C 83 % 1008,9 hPa 0,0 l/m 0,0 km/h SO 14,1 C 17,0 C 0,0 km/h
12.06.2015 22:00 15,9 C 83 % 1008,5 hPa 0,0 l/m 0,0 km/h SO 13,0 C 15,9 C 0,0 km/h
12.06.2015 23:00 15,3 C 82 % 1008,4 hPa 0,4 l/m 0,0 km/h SO 12,2 C 15,3 C 0,0 km/h
13.06.2015 00:00 14,9 C 81 % 1007,9 hPa 0,0 l/m 0,0 km/h SO 11,7 C 14,9 C 0,0 km/h
13.06.2015 01:00 14,6 C 81 % 1007,8 hPa 0,0 l/m 0,0 km/h S-SO 11,4 C 14,6 C 0,0 km/h
13.06.2015 02:00 14,9 C 79 % 1007,4 hPa 0,0 l/m 0,0 km/h S-SO 11,3 C 14,9 C 0,0 km/h
13.06.2015 03:00 15,0 C 78 % 1008,3 hPa 0,0 l/m 0,0 km/h O 11,2 C 15,0 C 0,0 km/h
13.06.2015 04:00 15,3 C 77 % 1008,6 hPa 0,0 l/m 0,0 km/h O-NO 11,3 C 15,3 C 0,0 km/h
13.06.2015 05:00 15,4 C 75 % 1009,0 hPa 0,0 l/m 0,0 km/h O-SO 11,0 C 15,4 C 0,0 km/h
13.06.2015 06:00 15,9 C 74 % 1009,6 hPa 0,0 l/m 0,0 km/h O-SO 11,3 C 15,9 C 0,0 km/h
13.06.2015 07:00 17,2 C 72 % 1009,6 hPa 0,0 l/m 0,0 km/h N-NW 12,1 C 17,2 C 0,0 km/h
13.06.2015 08:00 19,5 C 81 % 1010,3 hPa 0,0 l/m 3,2 km/h N-NW 16,1 C 19,5 C 1,8 km/h
13.06.2015 09:00 24,3 C 69 % 1010,9 hPa 0,0 l/m 22,7 km/h W 18,2 C 21,4 C 12,6 km/h
13.06.2015 10:00 23,5 C 67 % 1010,8 hPa 0,0 l/m 14,9 km/h W-SW 17,0 C 21,5 C 8,3 km/h
13.06.2015 11:00 25,9 C 58 % 1010,9 hPa 0,0 l/m 16,2 km/h SW 17,0 C 24,2 C 9,0 km/h
13.06.2015 12:00 23,4 C 60 % 1010,9 hPa 0,0 l/m 11,7 km/h W-SW 15,2 C 22,0 C 6,5 km/h
13.06.2015 13:00 25,9 C 57 % 1011,0 hPa 0,0 l/m 21,4 km/h W 16,7 C 23,7 C 11,9 km/h
13.06.2015 14:00 26,5 C 52 % 1010,8 hPa 0,0 l/m 18,8 km/h W 15,8 C 24,7 C 10,4 km/h
13.06.2015 15:00 26,8 C 50 % 1010,4 hPa 0,0 l/m 4,5 km/h NO 15,5 C 26,8 C 2,5 km/h
13.06.2015 16:00 27,9 C 52 % 1010,1 hPa 0,0 l/m 7,8 km/h NO 17,1 C 27,7 C 4,3 km/h
13.06.2015 17:00 32,3 C 42 % 1009,1 hPa 0,0 l/m 14,9 km/h W-NW 17,7 C 32,2 C 8,3 km/h
13.06.2015 18:00 31,8 C 41 % 1008,7 hPa 0,0 l/m 0,0 km/h N-NO 16,9 C 31,8 C 0,0 km/h
13.06.2015 19:00 24,6 C 54 % 1008,6 hPa 0,0 l/m 0,0 km/h N-NO 14,7 C 24,6 C 0,0 km/h
13.06.2015 20:00 22,5 C 61 % 1008,8 hPa 0,0 l/m 0,0 km/h NO 14,6 C 22,5 C 0,0 km/h
13.06.2015 21:00 18,4 C 72 % 1009,2 hPa 0,0 l/m 0,0 km/h O-SO 13,3 C 18,4 C 0,0 km/h
13.06.2015 22:00 16,9 C 79 % 1009,3 hPa 0,0 l/m 0,0 km/h SO 13,2 C 16,9 C 0,0 km/h
13.06.2015 23:00 16,9 C 82 % 1009,4 hPa 0,0 l/m 0,0 km/h SO 13,8 C 16,9 C 0,0 km/h
14.06.2015 00:00 16,5 C 83 % 1010,0 hPa 0,0 l/m 9,1 km/h O-SO 13,6 C 15,2 C 5,0 km/h
14.06.2015 01:00 16,4 C 83 % 1010,0 hPa 0,0 l/m 0,0 km/h S-SO 13,5 C 16,4 C 0,0 km/h
14.06.2015 02:00 16,6 C 83 % 1008,6 hPa 0,0 l/m 0,0 km/h S 13,7 C 16,6 C 0,0 km/h
14.06.2015 03:00 16,2 C 84 % 1009,0 hPa 0,0 l/m 0,0 km/h S 13,5 C 16,2 C 0,0 km/h
14.06.2015 04:00 14,9 C 84 % 1008,8 hPa 0,0 l/m 0,0 km/h S 12,2 C 14,9 C 0,0 km/h
14.06.2015 05:00 13,9 C 84 % 1008,9 hPa 0,0 l/m 0,0 km/h S 11,2 C 13,9 C 0,0 km/h
14.06.2015 06:00 16,3 C 82 % 1008,5 hPa 0,0 l/m 0,0 km/h S-SO 13,2 C 16,3 C 0,0 km/h
14.06.2015 07:00 18,7 C 84 % 1008,3 hPa 0,0 l/m 0,0 km/h N-NO 15,9 C 18,7 C 0,0 km/h
14.06.2015 08:00 26,2 C 60 % 1008,0 hPa 0,0 l/m 0,0 km/h N 17,8 C 26,2 C 0,0 km/h
14.06.2015 09:00 28,2 C 55 % 1007,9 hPa 0,0 l/m 0,0 km/h SW 18,3 C 28,2 C 0,0 km/h
14.06.2015 10:00 27,2 C 59 % 1007,4 hPa 0,0 l/m 0,0 km/h W-NW 18,5 C 27,2 C 0,0 km/h
14.06.2015 11:00 26,2 C 60 % 1006,9 hPa 0,0 l/m 18,8 km/h N-NO 17,8 C 24,3 C 10,4 km/h
14.06.2015 12:00 27,5 C 56 % 1006,6 hPa 0,0 l/m 0,0 km/h N-NO 17,9 C 27,5 C 0,0 km/h
14.06.2015 13:00 29,3 C 53 % 1006,2 hPa 0,0 l/m 25,3 km/h S-SW 18,7 C 28,0 C 14,0 km/h
14.06.2015 14:00 24,5 C 57 % 1006,3 hPa 0,0 l/m 7,8 km/h SO 15,4 C 24,1 C 4,3 km/h
14.06.2015 15:00 16,4 C 83 % 1006,6 hPa 14,5 l/m 0,0 km/h NO 13,5 C 16,4 C 0,0 km/h
14.06.2015 16:00 20,3 C 83 % 1006,0 hPa 1,2 l/m 0,0 km/h SO 17,3 C 20,3 C 0,0 km/h
14.06.2015 17:00 27,2 C 65 % 1005,3 hPa 0,0 l/m 0,0 km/h O-NO 20,0 C 27,2 C 0,0 km/h
14.06.2015 18:00 24,6 C 67 % 1005,8 hPa 0,0 l/m 0,0 km/h O-NO 18,1 C 24,6 C 0,0 km/h
14.06.2015 19:00 22,4 C 75 % 1006,0 hPa 0,0 l/m 0,0 km/h O-NO 17,7 C 22,4 C 0,0 km/h
14.06.2015 20:00 20,3 C 81 % 1005,9 hPa 0,0 l/m 0,0 km/h S-SO 16,9 C 20,3 C 0,0 km/h
14.06.2015 21:00 19,2 C 83 % 1006,8 hPa 0,0 l/m 0,0 km/h W 16,2 C 19,2 C 0,0 km/h
14.06.2015 22:00 18,3 C 82 % 1008,1 hPa 0,0 l/m 6,5 km/h N 15,2 C 18,3 C 3,6 km/h
14.06.2015 23:00 17,3 C 83 % 1009,1 hPa 0,0 l/m 0,0 km/h S-SW 14,4 C 17,3 C 0,0 km/h
Min-Datum _ 09.06.15 11.06.15 14.06.15 - 08.06.15 - 09.06.15 09.06.15 08.06.15
_ Min-Zeit 05:51 18:51 17:51 - 00:51 - 05:51 20:51 00:51
Minimum _ 10,4 C 41 % 1005,3 hPa - 0,0 km/h - 7,6 C 9,2 C 0,0 km/h
Max-Datum _ 11.06.15 08.06.15 08.06.15 14.06.15 14.06.15 - 14.06.15 11.06.15 14.06.15
_ Max-Zeit 17:51 08:51 00:51 15:51 13:51 - 17:51 17:51 13:51
Maximum _ 33,3 C 84 % 1021,2 hPa 14,5 l/m 25,3 km/h
S-SW
- 20,0 C 33,3 C 14,0 km/h
S-SW
Durchschnitt _ 19,5 C 71 % 1013,9 hPa #23,6 l/m 2,6 km/h N-NO 13,7 C 19,3 C 1,5 km/h
www.sexauwetter.de